createdAt,value
2022-12-23T00:01:08.928Z,13.96
2022-12-23T00:03:35.628Z,14.00
2022-12-23T00:06:11.899Z,14.00
2022-12-23T00:08:38.562Z,14.07
2022-12-23T00:11:06.569Z,14.01
2022-12-23T00:13:33.268Z,13.94
2022-12-23T00:16:03.326Z,13.77
2022-12-23T00:18:30.080Z,13.42
2022-12-23T00:21:09.836Z,13.38
2022-12-23T00:23:37.708Z,13.52
2022-12-23T00:26:04.350Z,13.65
2022-12-23T00:28:31.038Z,13.60
2022-12-23T00:31:05.072Z,13.75
2022-12-23T00:33:42.046Z,13.82
2022-12-23T00:36:15.416Z,13.93
2022-12-23T00:38:42.071Z,13.99
2022-12-23T00:41:16.331Z,14.04
2022-12-23T00:43:42.972Z,14.08
2022-12-23T00:46:09.671Z,14.09
2022-12-23T00:48:36.386Z,14.11
2022-12-23T00:51:03.131Z,14.14
2022-12-23T00:53:29.914Z,14.14
2022-12-23T00:55:56.572Z,14.21
2022-12-23T00:58:23.231Z,14.23
2022-12-23T01:00:49.892Z,14.09
2022-12-23T01:03:16.623Z,14.24
2022-12-23T01:05:43.336Z,14.18
2022-12-23T01:08:11.582Z,13.96
2022-12-23T01:10:39.016Z,14.05
2022-12-23T01:13:05.655Z,14.13
2022-12-23T01:15:32.329Z,14.07
2022-12-23T01:17:58.937Z,14.02
2022-12-23T01:20:25.547Z,13.92
2022-12-23T01:22:52.180Z,14.06
2022-12-23T01:25:18.866Z,14.14
2022-12-23T01:27:45.490Z,14.06
2022-12-23T01:30:12.267Z,14.03
2022-12-23T01:32:38.879Z,14.14
2022-12-23T01:35:05.745Z,14.19
2022-12-23T01:37:32.396Z,14.15
2022-12-23T01:39:59.071Z,14.12
2022-12-23T01:42:25.714Z,14.13
2022-12-23T01:44:59.765Z,14.16
2022-12-23T01:47:34.987Z,14.09
2022-12-23T01:50:37.112Z,14.23
2022-12-23T01:53:09.331Z,14.19
2022-12-23T01:55:39.057Z,14.19
2022-12-23T01:58:12.106Z,14.10
2022-12-23T02:00:39.199Z,14.15
2022-12-23T02:03:05.992Z,14.28
2022-12-23T02:05:32.753Z,14.23
2022-12-23T02:07:59.479Z,14.20
2022-12-23T02:10:28.359Z,14.12
2022-12-23T02:13:00.321Z,14.25
2022-12-23T02:15:45.019Z,14.14
2022-12-23T02:18:20.664Z,13.95
2022-12-23T02:21:07.374Z,13.95
2022-12-23T02:23:36.859Z,13.98
2022-12-23T02:26:09.750Z,13.86
2022-12-23T02:29:03.902Z,13.89
2022-12-23T02:31:43.058Z,13.92
2022-12-23T02:34:19.715Z,13.97
2022-12-23T02:37:13.598Z,13.97
2022-12-23T02:39:54.041Z,13.85
2022-12-23T02:42:25.808Z,13.96
2022-12-23T02:45:11.086Z,13.96
2022-12-23T02:47:47.580Z,13.99
2022-12-23T02:50:19.783Z,14.08
2022-12-23T02:52:46.833Z,14.05
2022-12-23T02:55:15.238Z,13.97
2022-12-23T02:57:44.072Z,14.00
2022-12-23T03:00:11.148Z,14.01
2022-12-23T03:02:39.431Z,13.99
2022-12-23T03:05:06.840Z,13.96
2022-12-23T03:07:41.511Z,14.10
2022-12-23T03:10:28.649Z,14.06
2022-12-23T03:13:09.089Z,14.06
2022-12-23T03:15:59.434Z,14.21
2022-12-23T03:18:38.029Z,14.29
2022-12-23T03:21:24.892Z,14.35
2022-12-23T03:23:55.792Z,14.22
2022-12-23T03:26:27.621Z,14.21
2022-12-23T03:28:55.748Z,14.29
2022-12-23T03:31:24.728Z,14.33
2022-12-23T03:34:25.200Z,14.29
2022-12-23T03:36:52.671Z,14.40
2022-12-23T03:39:20.958Z,14.38
2022-12-23T03:41:57.856Z,14.25
2022-12-23T03:44:32.960Z,14.36
2022-12-23T03:47:07.609Z,14.37
2022-12-23T03:49:37.217Z,14.31
2022-12-23T03:52:18.891Z,14.40
2022-12-23T03:54:53.544Z,14.42
2022-12-23T03:57:20.721Z,14.44
2022-12-23T03:59:47.639Z,14.41
2022-12-23T04:02:35.541Z,14.38
2022-12-23T04:05:20.497Z,14.41
2022-12-23T04:08:10.461Z,14.41
2022-12-23T04:10:37.127Z,14.36
2022-12-23T04:13:03.757Z,14.44
2022-12-23T04:15:30.393Z,14.41
2022-12-23T04:17:57.104Z,14.47
2022-12-23T04:20:24.032Z,14.47
2022-12-23T04:22:50.630Z,14.50
2022-12-23T04:25:17.463Z,14.53
2022-12-23T04:27:44.117Z,14.55
2022-12-23T04:30:11.462Z,14.54
2022-12-23T04:32:38.102Z,14.53
2022-12-23T04:35:05.216Z,14.56
2022-12-23T04:37:31.806Z,14.54
2022-12-23T04:39:58.402Z,14.53
2022-12-23T04:42:24.980Z,14.58
2022-12-23T04:44:51.581Z,14.56
2022-12-23T04:47:18.422Z,14.61
2022-12-23T04:49:45.028Z,14.61
2022-12-23T04:52:11.657Z,14.61
2022-12-23T04:54:45.478Z,14.61
2022-12-23T04:57:12.832Z,14.51
2022-12-23T04:59:39.493Z,14.59
2022-12-23T05:02:06.404Z,14.44
2022-12-23T05:04:33.300Z,14.54
2022-12-23T05:06:59.946Z,14.52
2022-12-23T05:09:26.592Z,14.54
2022-12-23T05:11:53.264Z,14.49
2022-12-23T05:14:19.852Z,14.53
2022-12-23T05:16:46.490Z,14.59
2022-12-23T05:19:13.121Z,14.63
2022-12-23T05:21:39.713Z,14.55
2022-12-23T05:24:06.476Z,14.58
2022-12-23T05:26:33.061Z,14.58
2022-12-23T05:28:59.649Z,14.56
2022-12-23T05:31:26.253Z,14.56
2022-12-23T05:33:53.036Z,14.62
2022-12-23T05:36:19.772Z,14.59
2022-12-23T05:38:46.386Z,14.55
2022-12-23T05:41:13.023Z,14.55
2022-12-23T05:43:39.642Z,14.56
2022-12-23T05:46:06.368Z,14.56
2022-12-23T05:48:33.109Z,14.46
2022-12-23T05:50:59.732Z,14.40
2022-12-23T05:53:26.341Z,14.43
2022-12-23T05:55:53.002Z,14.42
2022-12-23T05:58:19.616Z,14.43
2022-12-23T06:00:46.213Z,14.39
2022-12-23T06:03:12.932Z,14.36
2022-12-23T06:05:40.404Z,14.43
2022-12-23T06:08:07.012Z,14.47
2022-12-23T06:10:33.662Z,14.49
2022-12-23T06:13:00.283Z,14.49
2022-12-23T06:15:26.948Z,14.53
2022-12-23T06:17:53.609Z,14.49
2022-12-23T06:20:21.112Z,14.48
2022-12-23T06:22:47.984Z,14.40
2022-12-23T06:25:14.830Z,14.33
2022-12-23T06:27:41.519Z,14.38
2022-12-23T06:30:08.743Z,14.25
2022-12-23T06:32:38.506Z,14.16
2022-12-23T06:35:06.766Z,14.21
2022-12-23T06:37:33.419Z,14.18
2022-12-23T06:40:00.117Z,14.28
2022-12-23T06:42:26.760Z,14.25
2022-12-23T06:44:53.414Z,14.07
2022-12-23T06:47:20.187Z,13.99
2022-12-23T06:49:46.826Z,13.85
2022-12-23T06:52:13.470Z,13.95
2022-12-23T06:54:40.076Z,13.95
2022-12-23T06:57:06.710Z,13.94
2022-12-23T06:59:33.372Z,14.01
2022-12-23T07:02:00.167Z,14.03
2022-12-23T07:04:27.028Z,14.03
2022-12-23T07:06:53.653Z,14.01
2022-12-23T07:09:20.290Z,14.08
2022-12-23T07:11:46.897Z,13.99
2022-12-23T07:14:13.562Z,14.05
2022-12-23T07:16:40.207Z,14.03
2022-12-23T07:19:07.983Z,14.15
2022-12-23T07:21:34.619Z,14.16
2022-12-23T07:24:01.269Z,14.00
2022-12-23T07:26:27.884Z,14.07
2022-12-23T07:28:54.490Z,13.98
2022-12-23T07:31:21.256Z,14.12
2022-12-23T07:33:47.936Z,14.20
2022-12-23T07:36:14.540Z,14.24
2022-12-23T07:38:41.158Z,14.00
2022-12-23T07:41:07.790Z,13.89
2022-12-23T07:43:34.431Z,14.08
2022-12-23T07:46:06.738Z,14.10
2022-12-23T07:48:33.411Z,14.11
2022-12-23T07:51:01.320Z,14.16
2022-12-23T07:53:28.027Z,14.16
2022-12-23T07:55:56.665Z,14.15
2022-12-23T07:58:23.748Z,14.13
2022-12-23T08:00:50.376Z,14.15
2022-12-23T08:03:17.169Z,14.21
2022-12-23T08:05:43.971Z,14.15
2022-12-23T08:08:10.586Z,14.24
2022-12-23T08:10:41.397Z,14.22
2022-12-23T08:13:11.116Z,14.24
2022-12-23T08:15:37.758Z,14.27
2022-12-23T08:18:04.368Z,14.28
2022-12-23T08:20:30.976Z,14.27
2022-12-23T08:22:57.611Z,14.29
2022-12-23T08:25:24.305Z,14.29
2022-12-23T08:27:51.160Z,14.38
2022-12-23T08:30:18.964Z,14.32
2022-12-23T08:32:46.818Z,14.39
2022-12-23T08:35:13.413Z,14.48
2022-12-23T08:37:40.064Z,14.57
2022-12-23T08:40:07.250Z,14.55
2022-12-23T08:42:33.928Z,14.67
2022-12-23T08:45:00.546Z,14.69
2022-12-23T08:47:27.238Z,14.71
2022-12-23T08:49:53.900Z,14.75
2022-12-23T08:52:20.546Z,14.77
2022-12-23T08:54:47.228Z,14.79
2022-12-23T08:57:13.967Z,14.79
2022-12-23T08:59:40.611Z,14.87
2022-12-23T09:02:09.825Z,14.89
2022-12-23T09:04:36.694Z,14.98
2022-12-23T09:07:03.390Z,15.07
2022-12-23T09:09:30.064Z,14.95
2022-12-23T09:11:56.662Z,15.07
2022-12-23T09:14:23.373Z,15.18
2022-12-23T09:16:50.854Z,15.13
2022-12-23T09:19:17.775Z,15.17
2022-12-23T09:21:44.413Z,15.17
2022-12-23T09:24:11.059Z,15.24
2022-12-23T09:26:37.788Z,15.17
2022-12-23T09:29:04.441Z,15.20
2022-12-23T09:31:36.502Z,15.23
2022-12-23T09:34:04.141Z,15.13
2022-12-23T09:36:30.726Z,15.13
2022-12-23T09:38:58.035Z,15.18
2022-12-23T09:41:43.999Z,15.15
2022-12-23T09:44:29.087Z,15.27
2022-12-23T09:46:58.200Z,15.25
2022-12-23T09:49:24.932Z,15.23
2022-12-23T09:51:52.370Z,15.26
2022-12-23T09:54:38.112Z,15.16
2022-12-23T09:57:32.656Z,15.03
2022-12-23T10:00:17.114Z,14.98
2022-12-23T10:03:01.067Z,14.94
2022-12-23T10:05:46.532Z,14.88
2022-12-23T10:08:33.162Z,14.88
2022-12-23T10:11:11.284Z,14.97
2022-12-23T10:13:39.587Z,14.98
2022-12-23T10:16:18.174Z,15.06
2022-12-23T10:18:59.875Z,14.99
2022-12-23T10:21:29.818Z,15.10
2022-12-23T10:23:56.389Z,15.08
2022-12-23T10:26:44.361Z,15.17
2022-12-23T10:29:19.385Z,15.23
2022-12-23T10:32:17.239Z,15.38
2022-12-23T10:35:02.247Z,15.36
2022-12-23T10:37:36.974Z,15.29
2022-12-23T10:40:28.371Z,15.39
2022-12-23T10:43:22.018Z,15.46
2022-12-23T10:45:49.858Z,15.49
2022-12-23T10:48:32.915Z,15.55
2022-12-23T10:51:17.709Z,15.51
2022-12-23T10:53:51.623Z,15.55
2022-12-23T10:56:18.453Z,15.62
2022-12-23T10:58:45.850Z,15.68
2022-12-23T11:01:21.750Z,15.63
2022-12-23T11:04:05.758Z,15.63
2022-12-23T11:06:37.129Z,15.69
2022-12-23T11:09:04.502Z,15.68
2022-12-23T11:11:58.554Z,15.64
2022-12-23T11:14:33.994Z,15.70
2022-12-23T11:17:00.671Z,15.77
2022-12-23T11:19:27.348Z,15.71
2022-12-23T11:21:55.239Z,15.61
2022-12-23T11:24:22.025Z,15.52
2022-12-23T11:27:02.658Z,15.43
2022-12-23T11:29:34.403Z,15.40
2022-12-23T11:32:02.265Z,15.45
2022-12-23T11:34:31.113Z,15.36
2022-12-23T11:37:01.856Z,15.42
2022-12-23T11:39:33.389Z,15.47
2022-12-23T11:42:15.952Z,15.09
2022-12-23T11:44:43.120Z,14.97
2022-12-23T11:47:33.507Z,15.11
2022-12-23T11:50:03.988Z,14.95
2022-12-23T11:52:31.280Z,14.91
2022-12-23T11:54:59.487Z,14.87
2022-12-23T11:57:38.135Z,14.75
2022-12-23T12:00:06.216Z,14.90
2022-12-23T12:02:44.785Z,14.78
2022-12-23T12:05:18.713Z,14.76
2022-12-23T12:07:45.336Z,14.76
2022-12-23T12:10:27.348Z,14.70
2022-12-23T12:12:58.981Z,14.65
2022-12-23T12:15:35.652Z,14.80
2022-12-23T12:18:02.296Z,14.79
2022-12-23T12:20:31.555Z,14.97
2022-12-23T12:23:02.163Z,15.05
2022-12-23T12:25:43.549Z,15.09
2022-12-23T12:28:22.562Z,14.92
2022-12-23T12:30:52.913Z,14.94
2022-12-23T12:33:23.361Z,15.09
2022-12-23T12:36:04.926Z,15.10
2022-12-23T12:38:32.016Z,15.27
2022-12-23T12:41:02.706Z,15.22
2022-12-23T12:43:31.008Z,15.17
2022-12-23T12:46:06.535Z,15.11
2022-12-23T12:48:45.198Z,15.14
2022-12-23T12:51:31.791Z,15.06
2022-12-23T12:54:26.191Z,15.02
2022-12-23T12:56:57.927Z,15.04
2022-12-23T12:59:37.488Z,15.10
2022-12-23T13:02:09.990Z,14.83
2022-12-23T13:04:59.593Z,14.87
2022-12-23T13:07:38.767Z,15.05
2022-12-23T13:10:34.266Z,15.19
2022-12-23T13:13:10.246Z,15.24
2022-12-23T13:15:51.969Z,15.26
2022-12-23T13:18:43.888Z,15.34
2022-12-23T13:21:17.724Z,15.34
2022-12-23T13:24:03.904Z,15.31
2022-12-23T13:26:44.486Z,15.27
2022-12-23T13:29:35.917Z,15.22
2022-12-23T13:32:47.490Z,15.28
2022-12-23T13:35:32.618Z,15.27
2022-12-23T13:38:18.917Z,15.19
2022-12-23T13:41:11.887Z,15.22
2022-12-23T13:43:49.178Z,15.22
2022-12-23T13:46:25.559Z,15.26
2022-12-23T13:49:13.811Z,15.33
2022-12-23T13:52:20.777Z,15.40
2022-12-23T13:55:08.976Z,15.33
2022-12-23T13:57:59.931Z,15.44
2022-12-23T14:00:29.451Z,15.41
2022-12-23T14:02:58.970Z,15.45
2022-12-23T14:05:32.607Z,15.47
2022-12-23T14:08:00.257Z,15.52
2022-12-23T14:10:26.912Z,15.47
2022-12-23T14:12:59.463Z,15.46
2022-12-23T14:15:47.448Z,15.43
2022-12-23T14:18:26.904Z,15.42
2022-12-23T14:21:09.447Z,15.38
2022-12-23T14:24:00.839Z,15.33
2022-12-23T14:27:08.869Z,15.27
2022-12-23T14:29:50.768Z,15.32
2022-12-23T14:32:41.715Z,15.42
2022-12-23T14:35:19.202Z,15.12
2022-12-23T14:38:04.649Z,15.17
2022-12-23T14:40:36.847Z,15.18
2022-12-23T14:43:23.310Z,15.23
2022-12-23T14:46:03.513Z,15.28
2022-12-23T14:48:37.174Z,15.36
2022-12-23T14:51:24.850Z,15.31
2022-12-23T14:53:51.369Z,15.32
2022-12-23T14:56:22.182Z,15.34
2022-12-23T14:58:51.503Z,15.32
2022-12-23T15:01:34.264Z,15.38
2022-12-23T15:04:08.301Z,15.37
2022-12-23T15:06:38.317Z,15.31
2022-12-23T15:09:05.712Z,15.30
2022-12-23T15:11:33.766Z,15.35
2022-12-23T15:14:03.063Z,15.30
2022-12-23T15:16:34.802Z,15.30
2022-12-23T15:19:12.580Z,15.35
2022-12-23T15:21:39.201Z,15.38
2022-12-23T15:24:06.085Z,15.34
2022-12-23T15:26:32.739Z,15.38
2022-12-23T15:28:59.767Z,15.32
2022-12-23T15:31:38.356Z,15.42
2022-12-23T15:34:13.271Z,15.45
2022-12-23T15:36:43.917Z,15.36
2022-12-23T15:39:18.622Z,15.41
2022-12-23T15:41:45.795Z,15.38
2022-12-23T15:44:23.208Z,15.41
2022-12-23T15:46:50.722Z,15.37
2022-12-23T15:49:18.083Z,15.47
2022-12-23T15:52:07.178Z,15.40
2022-12-23T15:54:35.182Z,15.30
2022-12-23T15:57:02.092Z,15.32
2022-12-23T15:59:37.807Z,15.06
2022-12-23T16:02:58.319Z,15.07
2022-12-23T16:05:06.517Z,15.16
2022-12-23T16:07:38.048Z,15.22
2022-12-23T16:10:21.687Z,15.25
2022-12-23T16:12:51.438Z,15.34
2022-12-23T16:15:27.721Z,15.44
2022-12-23T16:18:18.946Z,15.44
2022-12-23T16:20:46.783Z,15.50
2022-12-23T16:23:13.429Z,15.52
2022-12-23T16:25:42.142Z,15.52
2022-12-23T16:28:19.148Z,15.52
2022-12-23T16:30:45.770Z,15.51
2022-12-23T16:33:30.590Z,15.49
2022-12-23T16:35:57.207Z,15.54
2022-12-23T16:38:25.018Z,15.55
2022-12-23T16:40:55.572Z,15.66
2022-12-23T16:43:23.257Z,15.69
2022-12-23T16:45:51.402Z,15.61
2022-12-23T16:48:40.137Z,15.60
2022-12-23T16:51:16.106Z,15.54
2022-12-23T16:53:42.768Z,15.34
2022-12-23T16:56:16.245Z,15.42
2022-12-23T16:58:43.103Z,15.49
2022-12-23T17:01:14.298Z,15.56
2022-12-23T17:03:41.062Z,15.52
2022-12-23T17:06:12.552Z,15.46
2022-12-23T17:08:39.487Z,15.47
2022-12-23T17:11:06.480Z,15.40
2022-12-23T17:13:33.170Z,15.35
2022-12-23T17:15:59.915Z,15.34
2022-12-23T17:18:26.607Z,15.16
2022-12-23T17:20:53.304Z,15.10
2022-12-23T17:23:27.865Z,15.11
2022-12-23T17:25:54.522Z,15.27
2022-12-23T17:28:21.675Z,15.23
2022-12-23T17:30:50.965Z,15.14
2022-12-23T17:33:18.129Z,15.12
2022-12-23T17:35:44.776Z,15.18
2022-12-23T17:38:14.672Z,15.17
2022-12-23T17:40:41.352Z,15.27
2022-12-23T17:43:16.948Z,15.34
2022-12-23T17:45:43.912Z,15.24
2022-12-23T17:48:16.299Z,15.31
2022-12-23T17:50:47.551Z,15.20
2022-12-23T17:53:17.834Z,15.17
2022-12-23T17:55:44.452Z,15.15
2022-12-23T17:58:11.102Z,15.17
2022-12-23T18:00:38.078Z,15.29
2022-12-23T18:03:07.009Z,15.30
2022-12-23T18:05:34.823Z,15.12
2022-12-23T18:08:01.714Z,14.72
2022-12-23T18:10:38.193Z,14.54
2022-12-23T18:13:06.646Z,14.48
2022-12-23T18:15:41.147Z,14.50
2022-12-23T18:18:24.412Z,14.46
2022-12-23T18:20:56.404Z,14.45
2022-12-23T18:23:25.171Z,14.57
2022-12-23T18:25:51.864Z,14.65
2022-12-23T18:28:18.466Z,14.60
2022-12-23T18:30:45.198Z,14.68
2022-12-23T18:33:12.350Z,14.71
2022-12-23T18:35:42.850Z,14.77
2022-12-23T18:38:09.522Z,14.79
2022-12-23T18:40:36.330Z,14.88
2022-12-23T18:43:02.935Z,14.82
2022-12-23T18:45:31.275Z,14.81
2022-12-23T18:47:58.126Z,14.90
2022-12-23T18:50:25.313Z,14.92
2022-12-23T18:52:51.955Z,14.84
2022-12-23T18:55:18.641Z,14.85
2022-12-23T18:57:45.741Z,14.92
2022-12-23T19:00:14.350Z,14.92
2022-12-23T19:02:41.066Z,14.93
2022-12-23T19:05:08.068Z,14.83
2022-12-23T19:07:34.728Z,14.90
2022-12-23T19:10:01.417Z,14.96
2022-12-23T19:12:28.051Z,14.96
2022-12-23T19:14:54.663Z,14.98
2022-12-23T19:17:21.268Z,14.90
2022-12-23T19:19:47.855Z,15.02
2022-12-23T19:22:14.499Z,15.02
2022-12-23T19:24:58.290Z,15.01
2022-12-23T19:27:27.663Z,15.09
2022-12-23T19:29:54.326Z,15.04
2022-12-23T19:32:21.025Z,15.03
2022-12-23T19:34:47.688Z,15.03
2022-12-23T19:37:14.288Z,15.03
2022-12-23T19:39:40.945Z,15.04
2022-12-23T19:42:08.043Z,15.03
2022-12-23T19:44:34.740Z,15.09
2022-12-23T19:47:01.705Z,15.22
2022-12-23T19:49:28.358Z,15.23
2022-12-23T19:51:55.019Z,15.21
2022-12-23T19:54:21.618Z,15.07
2022-12-23T19:56:49.972Z,15.21
2022-12-23T19:59:16.741Z,15.26
2022-12-23T20:01:43.429Z,15.21
2022-12-23T20:04:10.129Z,15.27
2022-12-23T20:06:36.891Z,15.26
2022-12-23T20:09:03.710Z,15.20
2022-12-23T20:11:32.865Z,14.97
2022-12-23T20:13:59.925Z,14.97
2022-12-23T20:16:26.994Z,14.95
2022-12-23T20:18:54.047Z,15.02
2022-12-23T20:21:20.648Z,15.05
2022-12-23T20:23:47.392Z,15.10
2022-12-23T20:26:14.169Z,15.15
2022-12-23T20:28:40.843Z,15.12
2022-12-23T20:31:09.719Z,15.10
2022-12-23T20:33:36.866Z,15.09
2022-12-23T20:36:07.588Z,14.95
2022-12-23T20:38:35.035Z,15.02
2022-12-23T20:41:01.664Z,15.03
2022-12-23T20:43:28.414Z,15.00
2022-12-23T20:45:55.051Z,15.07
2022-12-23T20:48:21.769Z,15.14
2022-12-23T20:50:48.675Z,15.08
2022-12-23T20:53:15.320Z,14.93
2022-12-23T20:55:41.971Z,15.04
2022-12-23T20:58:08.585Z,15.06
2022-12-23T21:00:35.219Z,15.08
2022-12-23T21:03:08.411Z,15.14
2022-12-23T21:05:36.929Z,15.23
2022-12-23T21:08:03.542Z,15.21
2022-12-23T21:10:30.190Z,15.18
2022-12-23T21:12:56.793Z,15.09
2022-12-23T21:15:23.389Z,15.02
2022-12-23T21:17:49.967Z,15.03
2022-12-23T21:20:16.604Z,15.01
2022-12-23T21:22:43.212Z,15.13
2022-12-23T21:25:10.361Z,15.16
2022-12-23T21:27:36.999Z,15.14
2022-12-23T21:30:03.871Z,15.18
2022-12-23T21:32:30.493Z,15.20
2022-12-23T21:34:57.128Z,15.22
2022-12-23T21:37:23.751Z,15.17
2022-12-23T21:39:50.353Z,15.22
2022-12-23T21:42:16.997Z,15.22
2022-12-23T21:44:43.599Z,15.33
2022-12-23T21:47:10.257Z,15.18
2022-12-23T21:49:36.854Z,15.11
2022-12-23T21:52:03.614Z,15.21
2022-12-23T21:54:30.224Z,15.22
2022-12-23T21:56:56.855Z,15.13
2022-12-23T21:59:23.505Z,15.11
2022-12-23T22:01:50.240Z,15.01
2022-12-23T22:04:16.911Z,15.09
2022-12-23T22:06:43.937Z,15.20
2022-12-23T22:09:15.165Z,15.22
2022-12-23T22:11:41.999Z,15.29
2022-12-23T22:14:09.999Z,15.24
2022-12-23T22:16:36.736Z,15.25
2022-12-23T22:19:04.072Z,15.36
2022-12-23T22:21:31.182Z,15.35
2022-12-23T22:23:57.867Z,15.42
2022-12-23T22:26:26.483Z,15.38
2022-12-23T22:28:54.617Z,15.49
2022-12-23T22:31:27.599Z,15.56
2022-12-23T22:33:54.288Z,15.47
2022-12-23T22:36:20.975Z,15.27
2022-12-23T22:38:55.112Z,15.13
2022-12-23T22:41:21.773Z,15.13
2022-12-23T22:43:48.386Z,15.16
2022-12-23T22:46:15.047Z,15.22
2022-12-23T22:48:41.756Z,15.29
2022-12-23T22:51:13.347Z,15.38
2022-12-23T22:53:39.985Z,15.31
2022-12-23T22:56:07.159Z,15.24
2022-12-23T22:58:33.793Z,15.27
2022-12-23T23:01:00.564Z,15.24
2022-12-23T23:03:27.210Z,15.23
2022-12-23T23:06:00.607Z,15.28
2022-12-23T23:08:27.912Z,15.37
2022-12-23T23:10:56.185Z,15.34
2022-12-23T23:13:23.073Z,15.42
2022-12-23T23:15:49.710Z,15.34
2022-12-23T23:18:16.440Z,15.33
2022-12-23T23:20:43.052Z,15.23
2022-12-23T23:23:09.677Z,15.15
2022-12-23T23:25:36.280Z,15.19
2022-12-23T23:28:02.872Z,15.08
2022-12-23T23:30:29.593Z,15.07
2022-12-23T23:32:56.242Z,15.00
2022-12-23T23:35:22.893Z,14.89
2022-12-23T23:37:49.512Z,14.99
2022-12-23T23:40:16.147Z,15.00
2022-12-23T23:42:42.797Z,15.04
2022-12-23T23:45:09.784Z,15.03
2022-12-23T23:47:36.424Z,15.03
2022-12-23T23:50:03.866Z,15.10
2022-12-23T23:52:30.588Z,15.04
2022-12-23T23:54:57.239Z,14.99
2022-12-23T23:57:23.876Z,15.05
2022-12-23T23:59:50.474Z,15.14
